Terminal Aerodrome Forecast
Issued by NWS

Home | Current Version | Previous Version | Graphics & Text | Print | Product List | Glossary On
Versions: 1 2 3 4 5 6 7 8 9 10 11 12 13 14 15 16 17
000
FTUS43 KMPX 232300
TAFRWF
TAF
KRWF 232334Z 2400/2424 18006KT P6SM FEW250
     FM241700 23007KT P6SM BKN250
     FM242100 27009KT P6SM BKN250=

USA.gov is the U.S. government's official web portal to all federal, state and local government web resources and services.